createdAt,value
2017-03-16T00:00:30.474Z,26.27
2017-03-16T00:01:32.215Z,26.32
2017-03-16T00:02:31.930Z,26.97
2017-03-16T00:03:33.119Z,28.05
2017-03-16T00:04:34.975Z,27.10
2017-03-16T00:05:34.203Z,26.10
2017-03-16T00:06:36.047Z,27.72
2017-03-16T00:07:41.022Z,30.00
2017-03-16T00:08:42.464Z,27.32
2017-03-16T00:09:42.330Z,29.25
2017-03-16T00:10:43.666Z,30.70
2017-03-16T00:11:43.672Z,28.37
2017-03-16T00:12:43.231Z,28.65
2017-03-16T00:13:44.049Z,28.12
2017-03-16T00:14:46.115Z,27.75
2017-03-16T00:15:47.589Z,28.40
2017-03-16T00:16:47.658Z,27.83
2017-03-16T00:17:46.727Z,28.30
2017-03-16T00:18:48.939Z,29.33
2017-03-16T00:19:49.283Z,29.85
2017-03-16T00:20:55.676Z,28.60
2017-03-16T00:21:55.446Z,27.68
2017-03-16T00:22:56.208Z,29.10
2017-03-16T00:23:58.827Z,27.17
2017-03-16T00:25:00.981Z,26.97
2017-03-16T00:26:00.535Z,27.08
2017-03-16T00:27:00.756Z,28.17
2017-03-16T00:28:01.254Z,28.38
2017-03-16T00:29:02.284Z,27.97
2017-03-16T00:30:03.095Z,28.98
2017-03-16T00:31:03.783Z,30.20
2017-03-16T00:32:04.227Z,28.73
2017-03-16T00:33:04.063Z,30.08
2017-03-16T00:34:05.441Z,28.32
2017-03-16T00:35:06.424Z,30.52
2017-03-16T00:36:08.382Z,29.83
2017-03-16T00:37:08.542Z,32.50
2017-03-16T00:38:09.123Z,30.60
2017-03-16T00:39:11.148Z,28.12
2017-03-16T00:40:10.927Z,32.78
2017-03-16T00:41:11.903Z,31.03
2017-03-16T00:42:13.200Z,32.07
2017-03-16T00:43:13.579Z,32.85
2017-03-16T00:44:18.736Z,28.82
2017-03-16T00:45:20.634Z,31.45
2017-03-16T00:46:24.407Z,30.62
2017-03-16T00:47:25.858Z,30.88
2017-03-16T00:48:27.982Z,30.95
2017-03-16T00:49:28.447Z,31.13
2017-03-16T00:50:28.960Z,31.23
2017-03-16T00:51:31.072Z,33.98
2017-03-16T00:52:31.303Z,33.17
2017-03-16T00:53:31.192Z,32.87
2017-03-16T00:54:33.100Z,34.70
2017-03-16T00:55:32.671Z,33.47
2017-03-16T00:56:34.692Z,34.70
2017-03-16T00:57:35.554Z,32.50
2017-03-16T00:58:36.051Z,32.12
2017-03-16T00:59:37.418Z,33.47
2017-03-16T01:00:38.139Z,34.43
2017-03-16T01:01:39.386Z,35.10
2017-03-16T01:02:39.746Z,33.67
2017-03-16T01:03:42.425Z,32.08
2017-03-16T01:04:44.820Z,33.68
2017-03-16T01:05:46.961Z,33.25
2017-03-16T01:06:46.662Z,32.93
2017-03-16T01:07:47.380Z,34.03
2017-03-16T01:08:46.770Z,32.70
2017-03-16T01:09:47.767Z,32.47
2017-03-16T01:10:48.351Z,32.87
2017-03-16T01:11:50.834Z,33.52
2017-03-16T01:12:49.938Z,32.82
2017-03-16T01:13:50.059Z,32.70
2017-03-16T01:14:49.715Z,31.00
2017-03-16T01:15:51.596Z,32.65
2017-03-16T01:16:52.975Z,33.55
2017-03-16T01:17:53.252Z,33.18
2017-03-16T01:18:54.877Z,32.23
2017-03-16T01:20:00.196Z,32.80
2017-03-16T01:21:01.771Z,33.85
2017-03-16T01:22:01.208Z,34.33
2017-03-16T01:23:00.558Z,34.78
2017-03-16T01:24:02.528Z,34.93
2017-03-16T01:25:03.383Z,33.52
2017-03-16T01:26:05.994Z,35.68
2017-03-16T01:27:07.413Z,36.92
2017-03-16T01:28:08.663Z,34.72
2017-03-16T01:29:10.931Z,34.75
2017-03-16T01:30:11.318Z,35.73
2017-03-16T01:31:13.048Z,35.20
2017-03-16T01:32:16.792Z,34.87
2017-03-16T01:33:16.519Z,32.30
2017-03-16T01:34:21.275Z,35.67
2017-03-16T01:35:21.178Z,34.02
2017-03-16T01:36:21.215Z,34.63
2017-03-16T01:37:20.627Z,34.07
2017-03-16T01:38:19.755Z,32.82
2017-03-16T01:39:22.712Z,35.85
2017-03-16T01:40:22.579Z,35.73
2017-03-16T01:41:21.787Z,36.38
2017-03-16T01:42:22.120Z,36.25
2017-03-16T01:43:22.487Z,35.97
2017-03-16T01:44:22.120Z,35.43
2017-03-16T01:45:25.348Z,36.38
2017-03-16T01:46:27.567Z,38.12
2017-03-16T01:47:28.824Z,33.63
2017-03-16T01:48:29.704Z,36.12
2017-03-16T01:49:32.315Z,38.60
2017-03-16T01:50:34.124Z,36.40
2017-03-16T01:51:33.955Z,34.97
2017-03-16T01:52:33.020Z,36.35
2017-03-16T01:53:32.983Z,34.58
2017-03-16T01:54:33.071Z,38.72
2017-03-16T01:55:34.731Z,35.55
2017-03-16T01:56:35.179Z,36.87
2017-03-16T01:57:35.964Z,36.13
2017-03-16T01:58:40.956Z,36.33
2017-03-16T01:59:41.265Z,36.22
2017-03-16T02:00:43.732Z,37.63
2017-03-16T02:01:43.578Z,37.18
2017-03-16T02:02:43.011Z,38.27
2017-03-16T02:03:43.535Z,37.03
2017-03-16T02:04:44.227Z,37.32
2017-03-16T02:05:43.414Z,36.00
2017-03-16T02:06:44.883Z,36.97
2017-03-16T02:07:58.663Z,37.90
2017-03-16T02:09:19.710Z,35.08
2017-03-16T02:10:22.629Z,33.87
2017-03-16T02:11:26.219Z,37.02
2017-03-16T02:12:28.091Z,37.83
2017-03-16T02:13:27.854Z,37.78
2017-03-16T02:14:27.308Z,36.13
2017-03-16T02:15:29.631Z,35.22
2017-03-16T02:16:32.668Z,35.47
2017-03-16T02:17:33.499Z,37.63
2017-03-16T02:18:34.019Z,37.13
2017-03-16T02:19:34.318Z,36.60
2017-03-16T02:20:35.899Z,36.63
2017-03-16T02:21:38.333Z,35.28
2017-03-16T02:22:39.607Z,35.07
2017-03-16T02:23:39.667Z,36.60
2017-03-16T02:24:40.868Z,36.42
2017-03-16T02:25:44.572Z,37.07
2017-03-16T02:26:48.022Z,36.08
2017-03-16T02:27:49.011Z,35.78
2017-03-16T02:28:49.187Z,37.50
2017-03-16T02:29:51.652Z,32.88
2017-03-16T02:30:52.749Z,36.17
2017-03-16T02:31:52.957Z,36.55
2017-03-16T02:32:54.094Z,34.17
2017-03-16T02:33:55.593Z,35.98
2017-03-16T02:34:55.692Z,35.92
2017-03-16T02:35:56.877Z,35.70
2017-03-16T02:37:01.360Z,37.10
2017-03-16T02:38:01.658Z,35.85
2017-03-16T02:39:02.580Z,37.62
2017-03-16T02:40:03.114Z,35.17
2017-03-16T02:41:05.003Z,38.20
2017-03-16T02:42:06.631Z,36.95
2017-03-16T02:43:07.166Z,36.10
2017-03-16T02:44:06.526Z,33.10
2017-03-16T02:45:06.328Z,35.95
2017-03-16T02:46:08.108Z,37.50
2017-03-16T02:47:09.508Z,36.47
2017-03-16T02:48:11.015Z,35.20
2017-03-16T02:49:12.335Z,38.03
2017-03-16T02:50:15.849Z,35.67
2017-03-16T02:51:18.213Z,37.48
2017-03-16T02:52:20.261Z,36.70
2017-03-16T02:53:21.771Z,34.48
2017-03-16T02:54:22.453Z,34.27
2017-03-16T02:55:25.349Z,37.72
2017-03-16T02:56:27.852Z,35.22
2017-03-16T02:57:27.832Z,37.98
2017-03-16T02:58:29.096Z,37.10
2017-03-16T02:59:32.435Z,36.30
2017-03-16T03:00:35.767Z,34.87
2017-03-16T03:01:36.899Z,36.55
2017-03-16T03:02:40.120Z,35.00
2017-03-16T03:03:43.779Z,35.17
2017-03-16T03:04:46.397Z,36.78
2017-03-16T03:05:46.679Z,36.70
2017-03-16T03:06:46.782Z,35.70
2017-03-16T03:07:46.363Z,38.27
2017-03-16T03:08:47.906Z,36.65
2017-03-16T03:09:51.824Z,38.02
2017-03-16T03:10:54.072Z,36.88
2017-03-16T03:11:54.556Z,38.62
2017-03-16T03:12:54.652Z,38.00
2017-03-16T03:13:58.620Z,39.95
2017-03-16T03:15:01.255Z,38.68
2017-03-16T03:16:03.125Z,39.47
2017-03-16T03:17:03.491Z,36.48
2017-03-16T03:18:03.275Z,40.40
2017-03-16T03:19:04.060Z,39.38
2017-03-16T03:20:04.452Z,39.33
2017-03-16T03:21:04.078Z,37.80
2017-03-16T03:22:05.614Z,36.82
2017-03-16T03:23:05.906Z,35.93
2017-03-16T03:24:07.915Z,37.13
2017-03-16T03:25:09.592Z,34.95
2017-03-16T03:26:11.355Z,35.50
2017-03-16T03:27:13.027Z,34.75
2017-03-16T03:28:18.613Z,38.50
2017-03-16T03:29:19.496Z,34.37
2017-03-16T03:30:20.424Z,34.38
2017-03-16T03:31:20.148Z,35.15
2017-03-16T03:32:20.043Z,36.48
2017-03-16T03:33:20.573Z,34.80
2017-03-16T03:34:21.132Z,33.23
2017-03-16T03:35:21.523Z,33.70
2017-03-16T03:36:22.196Z,36.63
2017-03-16T03:37:24.507Z,32.83
2017-03-16T03:38:25.231Z,34.47
2017-03-16T03:39:26.755Z,32.83
2017-03-16T03:40:26.239Z,34.33
2017-03-16T03:41:27.096Z,37.52
2017-03-16T03:42:31.209Z,34.43
2017-03-16T03:43:31.547Z,36.17
2017-03-16T03:44:32.377Z,35.70
2017-03-16T03:45:33.243Z,34.02
2017-03-16T03:46:33.671Z,35.90
2017-03-16T03:47:35.727Z,33.68
2017-03-16T03:48:36.049Z,35.55
2017-03-16T03:49:36.456Z,36.10
2017-03-16T03:50:40.601Z,35.48
2017-03-16T03:51:41.979Z,35.08
2017-03-16T03:52:45.262Z,35.88
2017-03-16T03:53:47.567Z,34.15
2017-03-16T03:54:50.295Z,35.47
2017-03-16T03:55:50.187Z,35.13
2017-03-16T03:56:50.153Z,35.08
2017-03-16T03:57:52.782Z,34.35
2017-03-16T03:58:53.123Z,35.18
2017-03-16T03:59:53.723Z,34.43
2017-03-16T04:00:54.559Z,34.30
2017-03-16T04:01:55.242Z,33.53
2017-03-16T04:02:57.832Z,34.67
2017-03-16T04:03:59.598Z,34.90
2017-03-16T04:04:59.773Z,33.38
2017-03-16T04:06:01.639Z,36.02
2017-03-16T04:07:02.007Z,33.65
2017-03-16T04:08:01.947Z,34.83
2017-03-16T04:09:03.216Z,35.65
2017-03-16T04:10:04.232Z,34.18
2017-03-16T04:11:06.448Z,37.12
2017-03-16T04:12:08.092Z,35.63
2017-03-16T04:13:08.473Z,36.75
2017-03-16T04:14:08.767Z,33.67
2017-03-16T04:15:08.082Z,34.10
2017-03-16T04:16:10.287Z,34.68
2017-03-16T04:17:11.132Z,33.20
2017-03-16T04:18:11.538Z,34.65
2017-03-16T04:19:12.462Z,33.82
2017-03-16T04:20:11.783Z,33.00
2017-03-16T04:21:13.608Z,31.48
2017-03-16T04:22:13.884Z,34.33
2017-03-16T04:23:13.868Z,33.45
2017-03-16T04:24:14.264Z,35.37
2017-03-16T04:25:13.732Z,34.28
2017-03-16T04:26:15.672Z,33.03
2017-03-16T04:27:16.125Z,34.43
2017-03-16T04:28:19.930Z,33.27
2017-03-16T04:29:20.334Z,34.30
2017-03-16T04:30:19.655Z,33.60
2017-03-16T04:31:19.163Z,31.90
2017-03-16T04:32:21.848Z,31.87
2017-03-16T04:33:24.164Z,32.80
2017-03-16T04:34:25.269Z,34.87
2017-03-16T04:35:27.355Z,31.98
2017-03-16T04:36:28.638Z,33.82
2017-03-16T04:37:28.094Z,33.78
2017-03-16T04:38:29.163Z,32.15
2017-03-16T04:39:32.530Z,34.38
2017-03-16T04:40:32.599Z,32.28
2017-03-16T04:41:35.180Z,30.85
2017-03-16T04:42:34.799Z,31.87
2017-03-16T04:43:36.132Z,32.30
2017-03-16T04:44:37.241Z,33.15
2017-03-16T04:45:40.231Z,29.82
2017-03-16T04:46:40.540Z,31.48
2017-03-16T04:47:40.849Z,32.72
2017-03-16T04:48:42.579Z,33.07
2017-03-16T04:49:43.423Z,32.35
2017-03-16T04:50:45.404Z,32.37
2017-03-16T04:51:44.724Z,33.80
2017-03-16T04:52:48.291Z,34.80
2017-03-16T04:53:51.399Z,33.73
2017-03-16T04:54:52.392Z,31.68
2017-03-16T04:55:52.587Z,32.22
2017-03-16T04:56:52.331Z,32.37
2017-03-16T04:57:52.590Z,30.95
2017-03-16T04:58:53.843Z,32.78
2017-03-16T04:59:53.744Z,33.08
2017-03-16T05:00:53.054Z,32.58
2017-03-16T05:01:53.223Z,33.17
2017-03-16T05:02:56.120Z,35.42
2017-03-16T05:03:56.079Z,32.05
2017-03-16T05:04:57.284Z,34.75
2017-03-16T05:05:56.961Z,32.08
2017-03-16T05:06:56.559Z,31.25
2017-03-16T05:08:03.365Z,33.32
2017-03-16T05:09:04.863Z,31.33
2017-03-16T05:10:05.203Z,33.50
2017-03-16T05:11:07.138Z,33.62
2017-03-16T05:12:07.864Z,32.40
2017-03-16T05:13:09.447Z,32.23
2017-03-16T05:14:13.512Z,35.10
2017-03-16T05:15:14.700Z,33.87
2017-03-16T05:16:15.262Z,34.63
2017-03-16T05:17:16.603Z,35.32
2017-03-16T05:18:19.069Z,33.23
2017-03-16T05:19:19.984Z,31.38
2017-03-16T05:20:18.907Z,35.90
2017-03-16T05:21:19.983Z,32.65
2017-03-16T05:22:21.916Z,32.05
2017-03-16T05:23:22.475Z,34.50
2017-03-16T05:24:23.163Z,35.03
2017-03-16T05:25:22.980Z,35.37
2017-03-16T05:26:22.652Z,36.07
2017-03-16T05:27:22.930Z,33.25
2017-03-16T05:28:25.085Z,37.12
2017-03-16T05:29:28.217Z,34.90
2017-03-16T05:30:28.731Z,36.47
2017-03-16T05:31:30.380Z,35.75
2017-03-16T05:32:31.716Z,35.35
2017-03-16T05:33:32.568Z,36.35
2017-03-16T05:34:33.419Z,36.12
2017-03-16T05:35:35.891Z,38.12
2017-03-16T05:36:35.900Z,38.13
2017-03-16T05:37:36.584Z,37.30
2017-03-16T05:38:37.297Z,38.92
2017-03-16T05:39:38.183Z,36.12
2017-03-16T05:40:38.272Z,34.78
2017-03-16T05:41:39.559Z,34.85
2017-03-16T05:42:42.490Z,37.08
2017-03-16T05:43:42.583Z,38.05
2017-03-16T05:44:43.120Z,36.75
2017-03-16T05:45:44.153Z,37.92
2017-03-16T05:46:43.606Z,37.80
2017-03-16T05:47:43.509Z,37.00
2017-03-16T05:48:44.731Z,35.77
2017-03-16T05:49:44.507Z,38.25
2017-03-16T05:50:46.184Z,36.60
2017-03-16T05:51:47.084Z,35.90
2017-03-16T05:52:49.521Z,39.70
2017-03-16T05:53:49.188Z,34.58
2017-03-16T05:54:49.491Z,37.55
2017-03-16T05:55:49.503Z,37.72
2017-03-16T05:56:49.717Z,38.55
2017-03-16T05:57:48.819Z,36.53
2017-03-16T05:58:49.812Z,38.18
2017-03-16T05:59:51.804Z,33.73
2017-03-16T06:00:54.421Z,37.35
2017-03-16T06:01:55.447Z,35.65
2017-03-16T06:02:55.984Z,36.22
2017-03-16T06:03:56.368Z,35.28
2017-03-16T06:04:59.142Z,37.83
2017-03-16T06:05:59.067Z,35.78
2017-03-16T06:06:59.111Z,38.10
2017-03-16T06:07:59.570Z,38.18
2017-03-16T06:09:00.855Z,35.03
2017-03-16T06:10:00.515Z,36.33
2017-03-16T06:11:02.973Z,37.22
2017-03-16T06:12:02.226Z,36.08
2017-03-16T06:13:03.361Z,37.60
2017-03-16T06:14:06.804Z,36.60
2017-03-16T06:15:08.123Z,36.78
2017-03-16T06:16:08.159Z,37.22
2017-03-16T06:17:08.051Z,37.12
2017-03-16T06:18:10.983Z,35.58
2017-03-16T06:19:14.031Z,36.05
2017-03-16T06:20:13.904Z,36.18
2017-03-16T06:21:15.263Z,36.00
2017-03-16T06:22:15.523Z,36.55
2017-03-16T06:23:15.860Z,36.18
2017-03-16T06:24:16.319Z,37.45
2017-03-16T06:25:20.172Z,38.27
2017-03-16T06:26:21.836Z,36.00
2017-03-16T06:27:23.179Z,37.33
2017-03-16T06:28:23.436Z,36.80
2017-03-16T06:29:26.676Z,35.80
2017-03-16T06:30:27.148Z,36.25
2017-03-16T06:31:28.644Z,35.15
2017-03-16T06:32:29.541Z,36.35
2017-03-16T06:33:29.016Z,36.00
2017-03-16T06:34:30.937Z,38.90
2017-03-16T06:35:30.704Z,35.42
2017-03-16T06:36:32.027Z,35.72
2017-03-16T06:37:36.509Z,35.15
2017-03-16T06:38:36.284Z,36.47
2017-03-16T06:39:35.916Z,39.73
2017-03-16T06:40:37.508Z,36.70
2017-03-16T06:41:39.632Z,36.03
2017-03-16T06:42:41.241Z,38.57
2017-03-16T06:43:42.997Z,37.60
2017-03-16T06:44:44.812Z,37.55
2017-03-16T06:45:45.856Z,36.85
2017-03-16T06:46:47.049Z,33.28
2017-03-16T06:47:50.320Z,35.48
2017-03-16T06:48:51.560Z,35.63
2017-03-16T06:49:51.272Z,35.65
2017-03-16T06:50:50.744Z,36.10
2017-03-16T06:51:51.807Z,34.80
2017-03-16T06:52:51.336Z,32.65
2017-03-16T06:53:51.417Z,37.42
2017-03-16T06:54:54.431Z,35.60
2017-03-16T06:55:53.955Z,35.00
2017-03-16T06:56:53.444Z,36.38
2017-03-16T06:57:55.229Z,34.13
2017-03-16T06:58:57.342Z,35.77
2017-03-16T06:59:58.789Z,35.40
2017-03-16T07:01:01.328Z,34.78
2017-03-16T07:02:01.651Z,36.90
2017-03-16T07:03:02.620Z,37.87
2017-03-16T07:04:03.343Z,36.58
2017-03-16T07:05:07.225Z,35.02
2017-03-16T07:06:08.643Z,36.88
2017-03-16T07:07:12.828Z,34.63
2017-03-16T07:08:13.644Z,34.27
2017-03-16T07:09:15.684Z,34.92
2017-03-16T07:10:17.868Z,34.37
2017-03-16T07:11:20.043Z,36.28
2017-03-16T07:12:20.750Z,35.43
2017-03-16T07:13:21.223Z,37.53
2017-03-16T07:14:21.212Z,35.08
2017-03-16T07:15:23.363Z,35.58
2017-03-16T07:16:25.140Z,36.32
2017-03-16T07:17:25.505Z,35.30
2017-03-16T07:18:28.472Z,33.92
2017-03-16T07:19:29.855Z,36.13
2017-03-16T07:20:30.843Z,38.48
2017-03-16T07:21:32.520Z,35.12
2017-03-16T07:22:33.315Z,38.17
2017-03-16T07:23:33.816Z,35.25
2017-03-16T07:24:38.979Z,37.42
2017-03-16T07:25:39.512Z,38.03
2017-03-16T07:26:39.410Z,35.05
2017-03-16T07:27:39.574Z,36.95
2017-03-16T07:28:42.976Z,36.50
2017-03-16T07:29:46.892Z,36.72
2017-03-16T07:30:47.076Z,34.93
2017-03-16T07:31:48.120Z,36.88
2017-03-16T07:32:48.913Z,35.42
2017-03-16T07:33:52.296Z,39.80
2017-03-16T07:34:54.283Z,37.27
2017-03-16T07:35:55.924Z,37.03
2017-03-16T07:36:56.164Z,36.15
2017-03-16T07:37:58.044Z,35.03
2017-03-16T07:38:59.031Z,37.62
2017-03-16T07:40:02.298Z,35.77
2017-03-16T07:41:03.017Z,35.32
2017-03-16T07:42:06.515Z,35.53
2017-03-16T07:43:07.853Z,34.37
2017-03-16T07:44:08.092Z,35.02
2017-03-16T07:45:10.779Z,36.85
2017-03-16T07:46:12.047Z,35.78
2017-03-16T07:47:11.328Z,38.22
2017-03-16T07:48:12.483Z,36.22
2017-03-16T07:49:13.063Z,37.98
2017-03-16T07:50:12.575Z,37.87
2017-03-16T07:51:13.233Z,39.08
2017-03-16T07:52:14.164Z,35.47
2017-03-16T07:53:14.812Z,38.88
2017-03-16T07:54:16.468Z,36.37
2017-03-16T07:55:18.067Z,38.47
2017-03-16T07:56:17.298Z,38.05
2017-03-16T07:57:20.024Z,35.50
2017-03-16T07:58:20.199Z,33.68
2017-03-16T07:59:22.164Z,35.75
2017-03-16T08:00:23.028Z,37.45
2017-03-16T08:01:23.172Z,34.27
2017-03-16T08:02:38.263Z,34.83
2017-03-16T08:03:39.979Z,39.00
2017-03-16T08:04:40.468Z,39.73
2017-03-16T08:05:45.567Z,34.20
2017-03-16T08:06:47.096Z,36.67
2017-03-16T08:07:46.487Z,36.23
2017-03-16T08:08:46.908Z,32.47
2017-03-16T08:09:46.883Z,36.40
2017-03-16T08:10:47.872Z,38.80
2017-03-16T08:11:47.727Z,37.15
2017-03-16T08:12:49.296Z,36.53
2017-03-16T08:13:50.483Z,36.28
2017-03-16T08:14:50.500Z,33.45
2017-03-16T08:15:50.604Z,36.73
2017-03-16T08:16:49.897Z,36.17
2017-03-16T08:17:52.132Z,36.32
2017-03-16T08:18:53.882Z,38.32
2017-03-16T08:19:54.336Z,35.48
2017-03-16T08:20:56.284Z,36.85
2017-03-16T08:22:00.239Z,37.32
2017-03-16T08:23:00.671Z,36.27
2017-03-16T08:24:01.021Z,36.12
2017-03-16T08:25:03.028Z,36.73
2017-03-16T08:26:03.055Z,38.08
2017-03-16T08:27:06.451Z,36.73
2017-03-16T08:28:07.783Z,36.73
2017-03-16T08:29:09.618Z,37.37
2017-03-16T08:30:11.827Z,37.68
2017-03-16T08:31:13.224Z,38.10
2017-03-16T08:32:15.850Z,36.93
2017-03-16T08:33:22.456Z,36.73
2017-03-16T08:34:25.539Z,34.70
2017-03-16T08:35:28.043Z,39.38
2017-03-16T08:36:30.278Z,35.60
2017-03-16T08:37:30.350Z,36.03
2017-03-16T08:38:30.001Z,36.70
2017-03-16T08:39:30.656Z,38.35
2017-03-16T08:40:30.911Z,39.22
2017-03-16T08:41:31.412Z,35.55
2017-03-16T08:42:31.103Z,35.12
2017-03-16T08:43:32.757Z,34.72
2017-03-16T08:44:36.619Z,39.02
2017-03-16T08:45:35.566Z,37.55
2017-03-16T08:46:38.601Z,34.67
2017-03-16T08:47:40.596Z,36.12
2017-03-16T08:48:41.783Z,35.40
2017-03-16T08:49:41.488Z,39.87
2017-03-16T08:50:42.232Z,36.45
2017-03-16T08:51:42.620Z,36.68
2017-03-16T08:52:43.449Z,37.27
2017-03-16T08:53:43.975Z,35.40
2017-03-16T08:54:46.063Z,38.73
2017-03-16T08:55:47.401Z,38.28
2017-03-16T08:56:47.846Z,37.50
2017-03-16T08:57:48.146Z,37.63
2017-03-16T08:58:47.707Z,36.32
2017-03-16T08:59:47.189Z,36.77
2017-03-16T09:00:47.003Z,35.82
2017-03-16T09:01:49.391Z,36.77
2017-03-16T09:02:50.440Z,37.45
2017-03-16T09:03:52.478Z,36.97
2017-03-16T09:04:54.500Z,36.15
2017-03-16T09:05:58.250Z,34.55
2017-03-16T09:06:57.391Z,35.33
2017-03-16T09:07:57.880Z,35.50
2017-03-16T09:08:58.387Z,35.67
2017-03-16T09:09:58.904Z,34.55
2017-03-16T09:11:00.878Z,36.00
2017-03-16T09:12:03.145Z,35.87
2017-03-16T09:13:03.189Z,33.53
2017-03-16T09:14:07.279Z,35.70
2017-03-16T09:15:09.210Z,33.77
2017-03-16T09:16:10.491Z,37.63
2017-03-16T09:17:12.544Z,35.60
2017-03-16T09:18:14.039Z,36.75
2017-03-16T09:19:15.576Z,36.57
2017-03-16T09:20:15.086Z,35.48
2017-03-16T09:21:15.048Z,34.53
2017-03-16T09:22:16.624Z,37.55
2017-03-16T09:23:16.367Z,35.83
2017-03-16T09:24:16.509Z,34.57
2017-03-16T09:25:18.127Z,35.07
2017-03-16T09:26:19.267Z,35.43
2017-03-16T09:27:19.472Z,35.42
2017-03-16T09:28:19.939Z,35.18
2017-03-16T09:29:20.521Z,34.78
2017-03-16T09:30:22.044Z,34.13
2017-03-16T09:31:22.104Z,35.70
2017-03-16T09:32:23.278Z,37.37
2017-03-16T09:33:23.932Z,37.47
2017-03-16T09:34:24.727Z,36.50
2017-03-16T09:35:25.390Z,35.45
2017-03-16T09:36:28.656Z,35.05
2017-03-16T09:37:31.916Z,34.15
2017-03-16T09:38:34.220Z,33.32
2017-03-16T09:39:33.223Z,34.88
2017-03-16T09:40:33.567Z,33.55
2017-03-16T09:41:36.784Z,33.48
2017-03-16T09:42:38.180Z,33.98
2017-03-16T09:43:38.252Z,34.10
2017-03-16T09:44:39.079Z,33.50
2017-03-16T09:45:42.254Z,32.98
2017-03-16T09:46:43.803Z,35.38
2017-03-16T09:47:45.033Z,33.63
2017-03-16T09:48:46.001Z,32.98
2017-03-16T09:49:47.131Z,35.03
2017-03-16T09:50:50.872Z,33.63
2017-03-16T09:51:52.819Z,34.97
2017-03-16T09:52:53.382Z,35.87
2017-03-16T09:53:54.727Z,36.00
2017-03-16T09:54:55.731Z,37.55
2017-03-16T09:55:55.964Z,34.30
2017-03-16T09:56:55.388Z,34.97
2017-03-16T09:57:55.907Z,33.98
2017-03-16T09:58:58.063Z,34.37
2017-03-16T09:59:59.187Z,33.52
2017-03-16T10:01:01.012Z,34.07
2017-03-16T10:02:04.068Z,34.95
2017-03-16T10:03:04.201Z,35.38
2017-03-16T10:04:06.589Z,35.55
2017-03-16T10:05:06.716Z,31.18
2017-03-16T10:06:07.913Z,34.47
2017-03-16T10:07:08.571Z,34.00
2017-03-16T10:08:09.068Z,33.97
2017-03-16T10:09:10.575Z,33.02
2017-03-16T10:10:13.529Z,31.77
2017-03-16T10:11:15.915Z,33.35
2017-03-16T10:12:17.732Z,32.57
2017-03-16T10:13:21.968Z,35.30
2017-03-16T10:14:24.367Z,34.80
2017-03-16T10:15:27.387Z,33.77
2017-03-16T10:16:30.204Z,35.57
2017-03-16T10:17:32.940Z,33.85
2017-03-16T10:18:35.881Z,33.27
2017-03-16T10:19:37.134Z,32.22
2017-03-16T10:20:39.269Z,31.67
2017-03-16T10:21:39.444Z,33.20
2017-03-16T10:22:40.432Z,33.68
2017-03-16T10:23:41.288Z,33.18
2017-03-16T10:24:41.319Z,30.93
2017-03-16T10:25:41.676Z,30.48
2017-03-16T10:26:43.134Z,34.62
2017-03-16T10:27:43.967Z,31.63
2017-03-16T10:28:44.918Z,30.98
2017-03-16T10:29:47.681Z,31.18
2017-03-16T10:30:48.999Z,28.43
2017-03-16T10:31:52.516Z,30.15
2017-03-16T10:32:55.796Z,27.82
2017-03-16T10:33:56.147Z,27.82
2017-03-16T10:34:56.251Z,28.95
2017-03-16T10:35:58.211Z,28.10
2017-03-16T10:37:01.264Z,28.87
2017-03-16T10:38:03.426Z,27.25
2017-03-16T10:39:06.027Z,25.75
2017-03-16T10:40:07.911Z,23.72
2017-03-16T10:41:09.902Z,27.70
2017-03-16T10:42:12.023Z,23.70
2017-03-16T10:43:12.932Z,21.80
2017-03-16T10:44:15.875Z,19.78
2017-03-16T10:45:15.663Z,20.90
2017-03-16T10:46:16.693Z,21.22
2017-03-16T10:47:17.307Z,22.37
2017-03-16T10:48:19.224Z,18.63
2017-03-16T10:49:20.991Z,18.82
2017-03-16T10:50:20.648Z,17.62
2017-03-16T10:51:21.082Z,20.15
2017-03-16T10:52:24.807Z,20.10
2017-03-16T10:53:27.403Z,18.92
2017-03-16T10:54:30.285Z,19.00
2017-03-16T10:55:30.160Z,18.07
2017-03-16T10:56:32.744Z,18.50
2017-03-16T10:57:34.623Z,20.55
2017-03-16T10:58:35.016Z,20.83
2017-03-16T10:59:36.029Z,20.27
2017-03-16T11:00:36.754Z,20.28
2017-03-16T11:01:37.475Z,20.58
2017-03-16T11:02:40.556Z,19.03
2017-03-16T11:03:41.388Z,20.45
2017-03-16T11:04:41.574Z,22.55
2017-03-16T11:05:41.907Z,21.27
2017-03-16T11:06:42.768Z,17.33
2017-03-16T11:07:43.643Z,17.38
2017-03-16T11:08:46.147Z,17.20
2017-03-16T11:09:45.983Z,16.10
2017-03-16T11:10:46.867Z,16.82
2017-03-16T11:11:50.051Z,17.73
2017-03-16T11:12:54.164Z,15.35
2017-03-16T11:13:53.407Z,16.75
2017-03-16T11:14:54.368Z,16.23
2017-03-16T11:15:54.869Z,16.28
2017-03-16T11:16:56.045Z,17.37
2017-03-16T11:17:59.280Z,17.97
2017-03-16T11:18:59.343Z,18.08
2017-03-16T11:19:59.617Z,19.87
2017-03-16T11:21:02.500Z,20.62
2017-03-16T11:22:03.916Z,23.15
2017-03-16T11:23:06.075Z,19.63
2017-03-16T11:24:05.651Z,19.38
2017-03-16T11:25:10.788Z,19.13
2017-03-16T11:26:12.987Z,19.07
2017-03-16T11:27:15.204Z,18.58
2017-03-16T11:28:17.935Z,19.77
2017-03-16T11:29:21.195Z,17.63
2017-03-16T11:30:21.211Z,16.35
2017-03-16T11:31:21.598Z,15.63
2017-03-16T11:32:21.965Z,18.80
2017-03-16T11:33:23.354Z,17.13
2017-03-16T11:34:23.779Z,17.42
2017-03-16T11:35:23.997Z,17.63
2017-03-16T11:36:24.284Z,16.73
2017-03-16T11:37:23.924Z,17.83
2017-03-16T11:38:24.203Z,17.88
2017-03-16T11:39:24.749Z,17.40
2017-03-16T11:40:25.117Z,17.68
2017-03-16T11:41:26.643Z,16.57
2017-03-16T11:42:30.199Z,17.25
2017-03-16T11:43:30.594Z,17.47
2017-03-16T11:44:31.547Z,16.82
2017-03-16T11:45:31.831Z,17.85
2017-03-16T11:46:32.715Z,16.67
2017-03-16T11:47:33.101Z,18.70
2017-03-16T11:48:33.398Z,17.92
2017-03-16T11:49:33.351Z,17.83
2017-03-16T11:50:33.529Z,18.43
2017-03-16T11:51:35.643Z,18.35
2017-03-16T11:52:35.924Z,18.28
2017-03-16T11:53:37.653Z,20.48
2017-03-16T11:54:38.421Z,18.77
2017-03-16T11:55:40.643Z,18.48
2017-03-16T11:56:44.275Z,16.53
2017-03-16T11:57:46.079Z,19.18
2017-03-16T11:58:47.858Z,15.85
2017-03-16T11:59:50.323Z,18.20
2017-03-16T12:00:50.974Z,17.08
2017-03-16T12:01:53.483Z,18.77
2017-03-16T12:02:53.331Z,15.78
2017-03-16T12:03:54.071Z,13.02
2017-03-16T12:04:56.371Z,14.80
2017-03-16T12:05:57.272Z,14.43
2017-03-16T12:06:58.492Z,15.47
2017-03-16T12:07:59.555Z,14.68
2017-03-16T12:09:00.598Z,15.02
2017-03-16T12:10:03.460Z,13.75
2017-03-16T12:11:05.332Z,14.50
2017-03-16T12:12:06.458Z,14.35
2017-03-16T12:13:05.624Z,14.73
2017-03-16T12:14:08.404Z,16.40
2017-03-16T12:15:07.823Z,11.65
2017-03-16T12:16:10.691Z,12.28
2017-03-16T12:17:09.907Z,12.62
2017-03-16T12:18:11.231Z,13.47
2017-03-16T12:19:12.449Z,12.00
2017-03-16T12:20:13.781Z,11.50
2017-03-16T12:21:14.487Z,12.62
2017-03-16T12:22:17.307Z,13.52
2017-03-16T12:23:20.157Z,11.58
2017-03-16T12:24:21.964Z,11.43
2017-03-16T12:25:22.567Z,12.53
2017-03-16T12:26:23.239Z,11.92
2017-03-16T12:27:24.591Z,12.23
2017-03-16T12:28:24.336Z,10.67
2017-03-16T12:29:25.831Z,11.40
2017-03-16T12:30:25.722Z,10.93
2017-03-16T12:31:25.948Z,11.60
2017-03-16T12:32:26.520Z,11.40
2017-03-16T12:33:27.778Z,12.12
2017-03-16T12:34:31.156Z,11.30
2017-03-16T12:35:37.995Z,11.50
2017-03-16T12:36:38.063Z,8.60
2017-03-16T12:37:41.060Z,7.93
2017-03-16T12:38:43.749Z,8.18
2017-03-16T12:39:45.086Z,10.15
2017-03-16T12:40:48.015Z,12.52
2017-03-16T12:41:48.453Z,11.38
2017-03-16T12:42:48.642Z,11.77
2017-03-16T12:43:48.505Z,13.05
2017-03-16T12:44:49.431Z,11.97
2017-03-16T12:45:51.154Z,11.12
2017-03-16T12:46:53.320Z,11.38
2017-03-16T12:47:56.359Z,12.28
2017-03-16T12:49:00.291Z,13.38
2017-03-16T12:50:02.509Z,13.47
2017-03-16T12:51:03.676Z,13.37
2017-03-16T12:52:04.828Z,15.40
2017-03-16T12:53:05.807Z,15.35
2017-03-16T12:54:08.567Z,14.85
2017-03-16T12:55:11.021Z,14.42
2017-03-16T12:56:13.674Z,15.30
2017-03-16T12:57:15.494Z,14.53
2017-03-16T12:58:15.071Z,13.68
2017-03-16T12:59:15.099Z,13.22
2017-03-16T13:00:15.512Z,14.12
2017-03-16T13:01:15.178Z,15.43
2017-03-16T13:02:14.679Z,14.13
2017-03-16T13:03:16.560Z,13.40
2017-03-16T13:04:18.448Z,14.30
2017-03-16T13:05:21.760Z,14.07
2017-03-16T13:06:24.780Z,15.08
2017-03-16T13:07:25.635Z,14.67
2017-03-16T13:08:25.751Z,14.48
2017-03-16T13:09:27.543Z,14.68